createdAt,value
2023-05-12T00:02:34.369Z,100782.23
2023-05-12T00:07:36.766Z,100783.40
2023-05-12T00:12:38.973Z,100786.39
2023-05-12T00:17:41.189Z,100788.73
2023-05-12T00:22:43.342Z,100787.14
2023-05-12T00:27:45.528Z,100784.60
2023-05-12T00:32:47.743Z,100786.85
2023-05-12T00:37:49.898Z,100784.36
2023-05-12T00:42:52.196Z,100790.36
2023-05-12T00:47:54.535Z,100786.73
2023-05-12T00:52:58.113Z,100790.36
2023-05-12T00:58:00.275Z,100792.86
2023-05-12T01:03:02.753Z,100797.64
2023-05-12T01:08:05.953Z,100798.13
2023-05-12T01:13:08.462Z,100801.33
2023-05-12T01:18:12.104Z,100806.52
2023-05-12T01:23:18.262Z,100803.16
2023-05-12T01:28:21.467Z,100804.85
2023-05-12T01:33:23.760Z,100811.06
2023-05-12T01:38:26.248Z,100813.55
2023-05-12T01:43:28.528Z,100820.88
2023-05-12T01:48:30.716Z,100822.87
2023-05-12T01:53:32.794Z,100822.95
2023-05-12T01:58:34.969Z,100822.66
2023-05-12T02:03:37.722Z,100829.55
2023-05-12T02:08:39.860Z,100831.75
2023-05-12T02:13:45.434Z,100835.80
2023-05-12T02:18:47.780Z,100836.70
2023-05-12T02:23:50.616Z,100838.34
2023-05-12T02:28:52.692Z,100842.02
2023-05-12T02:33:54.982Z,100842.35
2023-05-12T02:38:57.177Z,100842.19
2023-05-12T02:43:59.248Z,100844.95
2023-05-12T02:49:01.329Z,100848.97
2023-05-12T02:54:03.518Z,100850.52
2023-05-12T02:59:05.601Z,100849.13
2023-05-12T03:04:07.778Z,100853.64
2023-05-12T03:09:09.971Z,100854.80
2023-05-12T03:14:12.195Z,100853.38
2023-05-12T03:19:14.435Z,100854.70
2023-05-12T03:24:16.730Z,100855.11
2023-05-12T03:29:18.907Z,100858.02
2023-05-12T03:34:21.094Z,100858.61
2023-05-12T03:39:24.503Z,100865.45
2023-05-12T03:44:26.893Z,100864.66
2023-05-12T03:49:29.080Z,100868.27
2023-05-12T03:54:31.176Z,100872.20
2023-05-12T03:59:33.340Z,100877.36
2023-05-12T04:04:36.352Z,100876.85
2023-05-12T04:09:38.534Z,100878.16
2023-05-12T04:14:43.123Z,100884.55
2023-05-12T04:19:46.390Z,100882.53
2023-05-12T04:24:48.772Z,100884.70
2023-05-12T04:29:51.261Z,100886.42
2023-05-12T04:34:56.119Z,100889.41
2023-05-12T04:39:58.300Z,100895.25
2023-05-12T04:45:00.585Z,100900.59
2023-05-12T04:50:04.035Z,100906.23
2023-05-12T04:55:07.367Z,100906.98
2023-05-12T05:00:10.215Z,100908.05
2023-05-12T05:05:12.307Z,100912.66
2023-05-12T05:10:14.676Z,100919.42
2023-05-12T05:15:16.860Z,100923.61
2023-05-12T05:20:19.885Z,100923.81
2023-05-12T05:25:22.466Z,100926.73
2023-05-12T05:30:24.659Z,100926.25
2023-05-12T05:35:26.828Z,100931.80
2023-05-12T05:40:33.818Z,100931.85
2023-05-12T05:45:40.928Z,100932.89
2023-05-12T05:50:43.724Z,100935.45
2023-05-12T05:55:46.635Z,100938.02
2023-05-12T06:00:49.423Z,100942.20
2023-05-12T06:05:51.603Z,100944.89
2023-05-12T06:10:53.787Z,100954.27
2023-05-12T06:15:55.971Z,100959.17
2023-05-12T06:20:58.054Z,100965.92
2023-05-12T06:26:00.345Z,100968.43
2023-05-12T06:31:02.532Z,100974.18
2023-05-12T06:36:05.531Z,100972.38
2023-05-12T06:41:07.835Z,100973.92
2023-05-12T06:46:10.316Z,100978.55
2023-05-12T06:51:13.115Z,100978.17
2023-05-12T06:56:16.624Z,100977.38
2023-05-12T07:01:18.841Z,100973.30
2023-05-12T07:06:21.503Z,100970.98
2023-05-12T07:11:23.697Z,100970.02
2023-05-12T07:16:26.034Z,100967.19
2023-05-12T07:21:29.180Z,100968.25
2023-05-12T07:26:31.985Z,100971.48
2023-05-12T07:31:34.302Z,100966.70
2023-05-12T07:36:37.071Z,100962.94
2023-05-12T07:41:39.248Z,100968.40
2023-05-12T07:46:41.965Z,100974.99
2023-05-12T07:51:44.130Z,100976.77
2023-05-12T07:56:46.313Z,100980.63
2023-05-12T08:01:48.842Z,100976.89
2023-05-12T08:06:51.098Z,100979.48
2023-05-12T08:11:53.387Z,100978.75
2023-05-12T08:16:55.506Z,100979.35
2023-05-12T08:21:57.757Z,100977.52
2023-05-12T08:26:59.805Z,100981.10
2023-05-12T08:32:02.630Z,100980.29
2023-05-12T08:37:05.996Z,100977.60
2023-05-12T08:42:20.622Z,100983.52
2023-05-12T08:47:25.226Z,100980.20
2023-05-12T08:52:33.789Z,100977.84
2023-05-12T08:57:38.184Z,100976.02
2023-05-12T09:02:53.055Z,100968.02
2023-05-12T09:07:57.449Z,100968.75
2023-05-12T09:13:03.957Z,100969.48
2023-05-12T09:18:05.973Z,100962.47
2023-05-12T09:23:14.344Z,100966.68
2023-05-12T09:28:17.240Z,100963.48
2023-05-12T09:33:19.221Z,100963.14
2023-05-12T09:38:21.224Z,100960.71
2023-05-12T09:43:23.183Z,100958.52
2023-05-12T09:48:27.381Z,100951.54
2023-05-12T09:53:29.507Z,100952.63
2023-05-12T09:58:32.803Z,100954.27
2023-05-12T10:03:37.751Z,100954.30
2023-05-12T10:08:57.549Z,100948.58
2023-05-12T10:14:00.347Z,100942.54
2023-05-12T10:19:03.996Z,100942.63
2023-05-12T10:24:07.195Z,100944.42
2023-05-12T10:29:09.869Z,100943.35
2023-05-12T10:34:18.311Z,100944.50
2023-05-12T10:39:21.406Z,100940.09
2023-05-12T10:44:28.114Z,100932.29
2023-05-12T10:49:39.907Z,100925.33
2023-05-12T10:54:44.149Z,100927.21
2023-05-12T10:59:57.006Z,100922.49
2023-05-12T11:05:59.105Z,100913.16
2023-05-12T11:11:02.888Z,100912.92
2023-05-12T11:16:06.521Z,100908.87
2023-05-12T11:21:11.551Z,100910.67
2023-05-12T11:26:18.053Z,100905.89
2023-05-12T11:31:21.786Z,100904.46
2023-05-12T11:36:23.839Z,100904.51
2023-05-12T11:41:26.025Z,100908.30
2023-05-12T11:46:29.272Z,100906.20
2023-05-12T11:51:31.724Z,100901.67
2023-05-12T11:56:34.319Z,100902.45
2023-05-12T12:01:46.168Z,100896.23
2023-05-12T12:06:48.010Z,100901.64
2023-05-12T12:11:50.208Z,100902.10
2023-05-12T12:16:52.083Z,100904.14
2023-05-12T12:21:55.381Z,100902.75
2023-05-12T12:26:56.997Z,100906.00
2023-05-12T12:31:59.448Z,100903.29
2023-05-12T12:37:01.324Z,100895.67
2023-05-12T12:42:04.321Z,100885.15
2023-05-12T12:47:06.318Z,100878.04
2023-05-12T12:52:08.549Z,100878.86
2023-05-12T12:57:10.464Z,100885.08
2023-05-12T13:02:12.686Z,100884.30
2023-05-12T13:07:15.154Z,100875.56
2023-05-12T13:12:17.121Z,100874.84
2023-05-12T13:17:19.199Z,100870.59
2023-05-12T13:22:21.805Z,100867.65
2023-05-12T13:27:23.670Z,100864.92
2023-05-12T13:32:25.799Z,100863.02
2023-05-12T13:37:27.938Z,100859.56
2023-05-12T13:42:29.939Z,100858.21
2023-05-12T13:47:32.348Z,100856.83
2023-05-12T13:52:34.501Z,100860.21
2023-05-12T13:57:36.366Z,100865.79
2023-05-12T14:02:38.461Z,100882.98
2023-05-12T14:07:42.060Z,100880.89
2023-05-12T14:12:44.764Z,100882.05
2023-05-12T14:17:46.769Z,100874.73
2023-05-12T14:22:48.920Z,100870.73
2023-05-12T14:27:51.020Z,100876.83
2023-05-12T14:32:53.157Z,100882.20
2023-05-12T14:37:56.294Z,100887.27
2023-05-12T14:42:58.580Z,100891.11
2023-05-12T14:48:00.673Z,100889.27
2023-05-12T14:53:02.472Z,100889.13
2023-05-12T14:58:04.423Z,100881.25
2023-05-12T15:03:07.101Z,100884.83
2023-05-12T15:08:10.124Z,100880.11
2023-05-12T15:13:13.358Z,100877.84
2023-05-12T15:18:15.156Z,100879.39
2023-05-12T15:23:17.407Z,100885.58
2023-05-12T15:28:20.410Z,100891.28
2023-05-12T15:33:22.688Z,100888.19
2023-05-12T15:38:24.872Z,100884.75
2023-05-12T15:43:26.751Z,100883.93
2023-05-12T15:48:30.090Z,100877.99
2023-05-12T15:53:32.152Z,100873.00
2023-05-12T15:58:34.966Z,100873.13
2023-05-12T16:03:37.313Z,100870.46
2023-05-12T16:08:39.506Z,100870.58
2023-05-12T16:13:42.003Z,100862.31
2023-05-12T16:18:44.021Z,100856.89
2023-05-12T16:23:46.469Z,100850.11
2023-05-12T16:28:48.651Z,100839.54
2023-05-12T16:33:50.635Z,100835.08
2023-05-12T16:38:53.131Z,100837.68
2023-05-12T16:43:56.443Z,100841.92
2023-05-12T16:48:58.618Z,100835.57
2023-05-12T16:54:00.513Z,100824.25
2023-05-12T16:59:03.187Z,100828.84
2023-05-12T17:04:06.469Z,100823.41
2023-05-12T17:09:08.993Z,100822.61
2023-05-12T17:14:12.005Z,100825.71
2023-05-12T17:19:14.730Z,100829.11
2023-05-12T17:24:17.282Z,100832.13
2023-05-12T17:29:19.982Z,100830.44
2023-05-12T17:34:21.881Z,100832.30
2023-05-12T17:39:23.799Z,100828.61
2023-05-12T17:44:25.715Z,100831.60
2023-05-12T17:49:27.694Z,100838.06
2023-05-12T17:54:29.483Z,100833.06
2023-05-12T17:59:31.863Z,100838.52
2023-05-12T18:04:34.356Z,100840.67
2023-05-12T18:09:36.369Z,100844.35
2023-05-12T18:14:38.415Z,100846.33
2023-05-12T18:19:40.401Z,100850.92
2023-05-12T18:24:42.592Z,100854.00
2023-05-12T18:29:45.082Z,100853.48
2023-05-12T18:34:47.173Z,100846.98
2023-05-12T18:39:49.541Z,100853.45
2023-05-12T18:44:53.256Z,100856.27
2023-05-12T18:49:55.340Z,100861.15
2023-05-12T18:54:57.527Z,100866.50
2023-05-12T18:59:59.489Z,100869.38
2023-05-12T19:05:01.888Z,100879.95
2023-05-12T19:10:04.823Z,100887.09
2023-05-12T19:15:07.801Z,100887.77
2023-05-12T19:20:10.414Z,100886.70
2023-05-12T19:25:17.188Z,100887.65
2023-05-12T19:30:19.591Z,100891.27
2023-05-12T19:35:22.429Z,100893.28
2023-05-12T19:40:24.766Z,100895.39
2023-05-12T19:45:26.980Z,100894.46
2023-05-12T19:50:29.238Z,100899.17
2023-05-12T19:55:31.523Z,100899.35
2023-05-12T20:00:33.625Z,100904.11
2023-05-12T20:05:38.558Z,100900.52
2023-05-12T20:10:40.639Z,100905.64
2023-05-12T20:15:43.607Z,100901.73
2023-05-12T20:20:45.710Z,100899.05
2023-05-12T20:29:28.190Z,100902.72
2023-05-12T20:34:32.301Z,100901.59
2023-05-12T20:39:35.479Z,100899.13
2023-05-12T20:44:39.021Z,100901.40
2023-05-12T20:49:42.921Z,100901.13
2023-05-12T20:54:46.466Z,100905.41
2023-05-12T20:59:52.742Z,100905.61
2023-05-12T21:04:56.357Z,100913.46
2023-05-12T21:10:00.802Z,100915.61
2023-05-12T21:15:04.829Z,100918.79
2023-05-12T21:20:10.210Z,100920.08
2023-05-12T21:25:13.696Z,100920.00
2023-05-12T21:30:17.314Z,100915.11
2023-05-12T21:35:21.039Z,100919.27
2023-05-12T21:40:24.447Z,100925.00
2023-05-12T21:45:28.375Z,100923.05
2023-05-12T21:50:31.885Z,100926.63
2023-05-12T21:55:35.210Z,100926.49
2023-05-12T22:00:38.644Z,100924.48
2023-05-12T22:05:42.145Z,100926.55
2023-05-12T22:10:45.954Z,100924.05
2023-05-12T22:15:49.290Z,100920.45
2023-05-12T22:20:53.501Z,100922.63
2023-05-12T22:25:56.910Z,100924.76
2023-05-12T22:31:00.325Z,100922.91
2023-05-12T22:36:04.041Z,100922.54
2023-05-12T22:41:07.352Z,100925.67
2023-05-12T22:46:10.879Z,100926.31
2023-05-12T22:51:14.283Z,100931.24
2023-05-12T22:56:17.716Z,100935.67
2023-05-12T23:01:21.250Z,100932.02
2023-05-12T23:06:24.825Z,100929.78
2023-05-12T23:11:28.244Z,100931.21
2023-05-12T23:16:31.707Z,100929.95
2023-05-12T23:21:35.269Z,100929.05
2023-05-12T23:26:38.909Z,100931.70
2023-05-12T23:31:42.876Z,100930.85
2023-05-12T23:36:46.429Z,100929.95
2023-05-12T23:41:50.153Z,100932.33
2023-05-12T23:46:53.681Z,100925.21
2023-05-12T23:51:57.286Z,100925.98
2023-05-12T23:57:00.707Z,100924.41
